createdAt,value
2022-08-12T00:00:30.664Z,961.17
2022-08-12T00:02:02.477Z,961.22
2022-08-12T00:02:30.889Z,961.18
2022-08-12T00:03:30.724Z,961.19
2022-08-12T00:05:30.690Z,961.18
2022-08-12T00:06:30.677Z,961.16
2022-08-12T00:07:30.676Z,961.14
2022-08-12T00:08:30.929Z,961.15
2022-08-12T00:09:30.814Z,961.14
2022-08-12T00:10:30.680Z,961.15
2022-08-12T00:12:30.784Z,961.12
2022-08-12T00:13:30.696Z,961.17
2022-08-12T00:14:30.687Z,961.15
2022-08-12T00:15:30.699Z,961.13
2022-08-12T00:16:30.689Z,961.1
2022-08-12T00:17:30.699Z,961.09
2022-08-12T00:18:30.700Z,961.16
2022-08-12T00:19:30.703Z,961.1
2022-08-12T00:20:30.719Z,961.11
2022-08-12T00:21:30.865Z,961.09
2022-08-12T00:22:30.715Z,961.1
2022-08-12T00:23:30.790Z,961.07
2022-08-12T00:24:30.711Z,961.08
2022-08-12T00:25:51.086Z,961.1
2022-08-12T00:27:43.337Z,961.06
2022-08-12T00:28:31.056Z,961.07
2022-08-12T00:29:30.727Z,961.06
2022-08-12T00:30:30.849Z,961.05
2022-08-12T00:31:30.739Z,961.13
2022-08-12T00:32:35.646Z,961.14
2022-08-12T00:33:34.003Z,961.13
2022-08-12T00:34:30.873Z,961.11
2022-08-12T00:35:32.154Z,961.14
2022-08-12T00:37:30.931Z,961.12
2022-08-12T00:39:30.757Z,961.11
2022-08-12T00:40:30.761Z,961.09
2022-08-12T00:42:30.772Z,961.07
2022-08-12T00:44:30.771Z,961.08
2022-08-12T00:45:30.894Z,961.04
2022-08-12T00:46:30.774Z,961.08
2022-08-12T00:47:30.774Z,961.1
2022-08-12T00:48:30.774Z,961.07
2022-08-12T00:49:30.858Z,961.08
2022-08-12T00:50:30.780Z,961.06
2022-08-12T00:52:30.886Z,961.12
2022-08-12T00:53:30.825Z,961.11
2022-08-12T00:54:30.794Z,961.12
2022-08-12T00:55:30.796Z,961.09
2022-08-12T00:57:30.799Z,961.13
2022-08-12T00:58:30.799Z,961.1
2022-08-12T00:59:30.808Z,961.08
2022-08-12T01:00:30.913Z,961.14
2022-08-12T01:01:30.940Z,961.07
2022-08-12T01:02:31.069Z,961.1
2022-08-12T01:03:30.815Z,961.07
2022-08-12T01:04:30.815Z,961.08
2022-08-12T01:05:30.853Z,961.07
2022-08-12T01:06:30.828Z,961.1
2022-08-12T01:07:30.826Z,961.08
2022-08-12T01:08:30.876Z,961.07
2022-08-12T01:09:30.928Z,961.06
2022-08-12T01:10:32.828Z,961.05
2022-08-12T01:11:30.854Z,961.09
2022-08-12T01:12:30.993Z,961.01
2022-08-12T01:13:30.979Z,961.09
2022-08-12T01:14:30.862Z,961.07
2022-08-12T01:17:30.858Z,961.03
2022-08-12T01:18:30.852Z,961.02
2022-08-12T01:19:30.854Z,961.03
2022-08-12T01:20:30.857Z,961.06
2022-08-12T01:21:30.943Z,961
2022-08-12T01:22:30.907Z,961.05
2022-08-12T01:23:30.869Z,961.02
2022-08-12T01:25:30.915Z,961
2022-08-12T01:26:31.040Z,960.99
2022-08-12T01:28:30.881Z,961
2022-08-12T01:29:32.765Z,960.97
2022-08-12T01:30:30.962Z,961
2022-08-12T01:31:30.925Z,961.01
2022-08-12T01:32:31.095Z,961.02
2022-08-12T01:34:36.069Z,961.01
2022-08-12T01:35:30.893Z,960.99
2022-08-12T01:36:31.071Z,960.98
2022-08-12T01:37:30.928Z,961
2022-08-12T01:38:30.918Z,960.97
2022-08-12T01:39:30.946Z,960.96
2022-08-12T01:41:30.906Z,960.93
2022-08-12T01:42:30.947Z,961.01
2022-08-12T01:43:31.049Z,960.97
2022-08-12T01:44:30.919Z,960.95
2022-08-12T01:45:40.624Z,960.93
2022-08-12T01:46:31.041Z,960.95
2022-08-12T01:47:30.921Z,960.98
2022-08-12T01:48:30.920Z,960.94
2022-08-12T01:49:30.922Z,960.93
2022-08-12T01:50:31.018Z,960.87
2022-08-12T01:52:14.973Z,960.9
2022-08-12T01:52:31.104Z,960.91
2022-08-12T01:53:30.962Z,960.92
2022-08-12T01:54:30.942Z,960.93
2022-08-12T01:56:31.025Z,960.96
2022-08-12T01:57:57.308Z,960.95
2022-08-12T01:58:31.995Z,960.94
2022-08-12T01:59:31.119Z,960.91
2022-08-12T02:00:36.126Z,960.85
2022-08-12T02:01:31.192Z,960.94
2022-08-12T02:02:31.052Z,960.91
2022-08-12T02:03:30.965Z,960.88
2022-08-12T02:04:31.073Z,960.9
2022-08-12T02:07:31.078Z,960.89
2022-08-12T02:08:31.038Z,960.94
2022-08-12T02:09:30.980Z,960.92
2022-08-12T02:10:49.825Z,960.91
2022-08-12T02:11:31.052Z,960.95
2022-08-12T02:12:31.318Z,960.94
2022-08-12T02:13:33.316Z,960.9
2022-08-12T02:14:31.163Z,960.89
2022-08-12T02:15:30.996Z,960.88
2022-08-12T02:16:30.998Z,960.89
2022-08-12T02:17:54.923Z,960.88
2022-08-12T02:18:31.170Z,960.89
2022-08-12T02:19:30.999Z,960.86
2022-08-12T02:20:34.335Z,960.92
2022-08-12T02:21:31.252Z,960.88
2022-08-12T02:23:31.049Z,960.87
2022-08-12T02:24:31.017Z,960.86
2022-08-12T02:25:31.098Z,960.83
2022-08-12T02:28:31.099Z,960.82
2022-08-12T02:30:33.301Z,960.81
2022-08-12T02:31:31.030Z,960.83
2022-08-12T02:32:31.227Z,960.81
2022-08-12T02:33:31.143Z,960.82
2022-08-12T02:34:31.115Z,960.8
2022-08-12T02:35:31.118Z,960.83
2022-08-12T02:36:31.383Z,960.81
2022-08-12T02:38:31.386Z,960.83
2022-08-12T02:39:31.182Z,960.76
2022-08-12T02:40:31.113Z,960.77
2022-08-12T02:41:31.079Z,960.76
2022-08-12T02:42:31.189Z,960.77
2022-08-12T02:43:31.066Z,960.71
2022-08-12T02:44:31.058Z,960.75
2022-08-12T02:46:31.082Z,960.71
2022-08-12T02:47:55.997Z,960.72
2022-08-12T02:48:31.303Z,960.82
2022-08-12T02:49:31.232Z,960.75
2022-08-12T02:50:31.073Z,960.79
2022-08-12T02:51:31.172Z,960.75
2022-08-12T02:52:31.286Z,960.79
2022-08-12T02:53:31.204Z,960.78
2022-08-12T02:54:31.171Z,960.75
2022-08-12T02:57:31.090Z,960.79
2022-08-12T02:58:33.143Z,960.78
2022-08-12T02:59:31.102Z,960.77
2022-08-12T03:00:31.186Z,960.72
2022-08-12T03:01:31.322Z,960.8
2022-08-12T03:02:31.261Z,960.78
2022-08-12T03:03:31.184Z,960.77
2022-08-12T03:04:31.120Z,960.74
2022-08-12T03:05:31.224Z,960.71
2022-08-12T03:06:31.282Z,960.73
2022-08-12T03:07:42.059Z,960.74
2022-08-12T03:08:31.638Z,960.71
2022-08-12T03:09:32.756Z,960.69
2022-08-12T03:10:36.554Z,960.7
2022-08-12T03:11:31.354Z,960.67
2022-08-12T03:12:31.484Z,960.72
2022-08-12T03:13:31.382Z,960.71
2022-08-12T03:14:31.241Z,960.7
2022-08-12T03:15:31.306Z,960.68
2022-08-12T03:16:32.690Z,960.64
2022-08-12T03:17:31.337Z,960.67
2022-08-12T03:18:31.145Z,960.64
2022-08-12T03:19:31.145Z,960.66
2022-08-12T03:20:31.341Z,960.63
2022-08-12T03:21:52.588Z,960.57
2022-08-12T03:22:31.302Z,960.63
2022-08-12T03:23:31.653Z,960.66
2022-08-12T03:24:31.209Z,960.67
2022-08-12T03:25:31.168Z,960.64
2022-08-12T03:26:31.264Z,960.67
2022-08-12T03:27:31.219Z,960.68
2022-08-12T03:28:31.288Z,960.65
2022-08-12T03:29:31.251Z,960.67
2022-08-12T03:30:31.392Z,960.7
2022-08-12T03:31:31.306Z,960.68
2022-08-12T03:32:34.972Z,960.67
2022-08-12T03:33:31.317Z,960.66
2022-08-12T03:34:31.296Z,960.65
2022-08-12T03:35:38.434Z,960.67
2022-08-12T03:36:31.352Z,960.68
2022-08-12T03:37:31.203Z,960.69
2022-08-12T03:38:31.258Z,960.67
2022-08-12T03:39:35.710Z,960.65
2022-08-12T03:41:31.207Z,960.67
2022-08-12T03:42:31.298Z,960.65
2022-08-12T03:43:31.202Z,960.7
2022-08-12T03:44:31.271Z,960.69
2022-08-12T03:46:31.311Z,960.66
2022-08-12T03:47:31.227Z,960.72
2022-08-12T03:48:31.225Z,960.71
2022-08-12T03:49:31.226Z,960.73
2022-08-12T03:50:31.226Z,960.7
2022-08-12T03:51:31.182Z,960.71
2022-08-12T03:52:31.311Z,960.73
2022-08-12T03:53:31.286Z,960.76
2022-08-12T03:54:31.243Z,960.73
2022-08-12T03:55:31.325Z,960.76
2022-08-12T03:56:31.233Z,960.73
2022-08-12T03:57:31.237Z,960.72
2022-08-12T03:58:31.321Z,960.71
2022-08-12T03:59:31.290Z,960.73
2022-08-12T04:00:31.366Z,960.71
2022-08-12T04:01:31.349Z,960.72
2022-08-12T04:03:31.381Z,960.71
2022-08-12T04:05:50.788Z,960.73
2022-08-12T04:06:34.614Z,960.72
2022-08-12T04:07:31.468Z,960.75
2022-08-12T04:08:31.274Z,960.74
2022-08-12T04:10:31.226Z,960.7
2022-08-12T04:12:32.549Z,960.69
2022-08-12T04:13:31.446Z,960.73
2022-08-12T04:14:31.284Z,960.72
2022-08-12T04:15:31.280Z,960.74
2022-08-12T04:17:31.316Z,960.75
2022-08-12T04:18:31.290Z,960.73
2022-08-12T04:19:31.307Z,960.74
2022-08-12T04:21:31.396Z,960.77
2022-08-12T04:22:31.371Z,960.78
2022-08-12T04:23:31.431Z,960.74
2022-08-12T04:25:31.322Z,960.75
2022-08-12T04:26:31.316Z,960.76
2022-08-12T04:27:31.812Z,960.73
2022-08-12T04:28:31.469Z,960.74
2022-08-12T04:30:16.049Z,960.7
2022-08-12T04:30:33.490Z,960.72
2022-08-12T04:31:31.630Z,960.71
2022-08-12T04:35:31.442Z,960.69
2022-08-12T04:36:31.412Z,960.72
2022-08-12T04:37:57.613Z,960.71
2022-08-12T04:39:31.473Z,960.7
2022-08-12T04:40:31.509Z,960.71
2022-08-12T04:42:31.396Z,960.69
2022-08-12T04:43:54.198Z,960.73
2022-08-12T04:44:31.617Z,960.75
2022-08-12T04:47:31.464Z,960.76
2022-08-12T04:49:31.370Z,960.78
2022-08-12T04:50:35.554Z,960.76
2022-08-12T04:51:31.693Z,960.74
2022-08-12T04:52:34.813Z,960.78
2022-08-12T04:53:31.584Z,960.77
2022-08-12T04:55:31.379Z,960.76
2022-08-12T04:56:35.356Z,960.8
2022-08-12T04:57:31.670Z,960.73
2022-08-12T04:58:31.511Z,960.78
2022-08-12T04:59:31.390Z,960.79
2022-08-12T05:00:31.661Z,960.7
2022-08-12T05:01:31.418Z,960.76
2022-08-12T05:02:31.446Z,960.79
2022-08-12T05:03:45.981Z,960.8
2022-08-12T05:04:31.652Z,960.82
2022-08-12T05:05:35.328Z,960.79
2022-08-12T05:06:31.683Z,960.8
2022-08-12T05:07:31.531Z,960.82
2022-08-12T05:08:31.488Z,960.83
2022-08-12T05:09:31.730Z,960.8
2022-08-12T05:10:33.233Z,960.82
2022-08-12T05:11:31.541Z,960.8
2022-08-12T05:12:31.633Z,960.78
2022-08-12T05:13:31.529Z,960.76
2022-08-12T05:14:34.452Z,960.77
2022-08-12T05:15:31.424Z,960.81
2022-08-12T05:16:32.660Z,960.8
2022-08-12T05:18:31.441Z,960.78
2022-08-12T05:19:31.545Z,960.76
2022-08-12T05:20:31.506Z,960.8
2022-08-12T05:21:31.442Z,960.78
2022-08-12T05:22:31.450Z,960.8
2022-08-12T05:23:31.572Z,960.79
2022-08-12T05:24:31.450Z,960.81
2022-08-12T05:25:31.555Z,960.79
2022-08-12T05:26:31.510Z,960.8
2022-08-12T05:27:31.585Z,960.81
2022-08-12T05:28:31.461Z,960.83
2022-08-12T05:30:05.864Z,960.87
2022-08-12T05:30:31.634Z,960.89
2022-08-12T05:31:40.297Z,960.87
2022-08-12T05:32:31.769Z,960.88
2022-08-12T05:33:31.482Z,960.94
2022-08-12T05:34:31.559Z,960.93
2022-08-12T05:35:31.537Z,960.94
2022-08-12T05:36:31.595Z,960.93
2022-08-12T05:37:31.569Z,960.95
2022-08-12T05:38:31.492Z,960.93
2022-08-12T05:39:31.638Z,960.92
2022-08-12T05:40:31.566Z,960.96
2022-08-12T05:41:31.507Z,960.97
2022-08-12T05:42:34.503Z,960.98
2022-08-12T05:43:31.496Z,960.97
2022-08-12T05:44:31.535Z,961.01
2022-08-12T05:45:31.612Z,961.07
2022-08-12T05:46:31.502Z,961.06
2022-08-12T05:47:36.603Z,961.05
2022-08-12T05:48:31.680Z,961.08
2022-08-12T05:50:31.533Z,961.07
2022-08-12T05:51:41.015Z,961.11
2022-08-12T05:52:31.517Z,961.1
2022-08-12T05:54:54.548Z,961.13
2022-08-12T05:55:31.860Z,961.11
2022-08-12T05:56:31.657Z,961.08
2022-08-12T05:57:31.625Z,961.12
2022-08-12T05:58:31.545Z,961.14
2022-08-12T05:59:31.564Z,961.13
2022-08-12T06:00:31.566Z,961.18
2022-08-12T06:02:08.617Z,961.16
2022-08-12T06:02:31.704Z,961.18
2022-08-12T06:03:31.600Z,961.16
2022-08-12T06:05:31.554Z,961.2
2022-08-12T06:06:31.705Z,961.21
2022-08-12T06:07:37.604Z,961.19
2022-08-12T06:08:31.696Z,961.17
2022-08-12T06:09:31.567Z,961.15
2022-08-12T06:10:32.868Z,961.16
2022-08-12T06:11:31.564Z,961.18
2022-08-12T06:12:31.572Z,961.21
2022-08-12T06:13:52.952Z,961.19
2022-08-12T06:15:31.580Z,961.18
2022-08-12T06:16:31.587Z,961.21
2022-08-12T06:17:31.687Z,961.23
2022-08-12T06:18:31.653Z,961.21
2022-08-12T06:20:33.506Z,961.19
2022-08-12T06:21:31.714Z,961.17
2022-08-12T06:22:31.732Z,961.19
2022-08-12T06:23:31.617Z,961.2
2022-08-12T06:25:31.652Z,961.23
2022-08-12T06:26:31.601Z,961.2
2022-08-12T06:27:31.772Z,961.24
2022-08-12T06:28:31.607Z,961.26
2022-08-12T06:29:35.938Z,961.24
2022-08-12T06:31:31.837Z,961.23
2022-08-12T06:32:31.712Z,961.27
2022-08-12T06:35:49.038Z,961.25
2022-08-12T06:36:32.637Z,961.19
2022-08-12T06:37:31.744Z,961.18
2022-08-12T06:38:31.713Z,961.2
2022-08-12T06:39:31.674Z,961.18
2022-08-12T06:40:31.750Z,961.16
2022-08-12T06:41:31.720Z,961.19
2022-08-12T06:44:05.315Z,961.18
2022-08-12T06:44:31.821Z,961.2
2022-08-12T06:46:31.865Z,961.19
2022-08-12T06:47:31.725Z,961.18
2022-08-12T06:48:31.655Z,961.19
2022-08-12T06:49:31.764Z,961.21
2022-08-12T06:50:31.663Z,961.2
2022-08-12T06:51:32.523Z,961.22
2022-08-12T06:52:31.702Z,961.23
2022-08-12T06:53:31.742Z,961.18
2022-08-12T06:54:32.347Z,961.17
2022-08-12T06:55:31.670Z,961.22
2022-08-12T06:57:00.097Z,961.34
2022-08-12T06:58:01.795Z,961.57
2022-08-12T06:58:31.777Z,961.74
2022-08-12T06:59:31.697Z,961.83
2022-08-12T07:00:32.650Z,961.86
2022-08-12T07:01:31.746Z,961.95
2022-08-12T07:02:36.399Z,961.98
2022-08-12T07:04:37.726Z,961.96
2022-08-12T07:07:31.709Z,961.93
2022-08-12T07:08:31.781Z,961.87
2022-08-12T07:09:56.215Z,961.83
2022-08-12T07:10:31.875Z,961.81
2022-08-12T07:11:31.706Z,961.78
2022-08-12T07:12:31.865Z,961.72
2022-08-12T07:13:31.721Z,961.7
2022-08-12T07:14:31.771Z,961.61
2022-08-12T07:16:31.722Z,961.62
2022-08-12T07:17:31.741Z,961.65
2022-08-12T07:18:31.853Z,961.55
2022-08-12T07:19:40.739Z,961.57
2022-08-12T07:20:51.520Z,961.58
2022-08-12T07:21:59.507Z,961.52
2022-08-12T07:22:31.916Z,961.55
2022-08-12T07:23:31.736Z,961.58
2022-08-12T07:24:31.839Z,961.55
2022-08-12T07:25:37.136Z,961.52
2022-08-12T07:26:31.784Z,961.53
2022-08-12T07:27:31.853Z,961.56
2022-08-12T07:28:31.820Z,961.55
2022-08-12T07:30:31.853Z,961.49
2022-08-12T07:31:31.764Z,961.48
2022-08-12T07:32:31.847Z,961.45
2022-08-12T07:33:31.775Z,961.48
2022-08-12T07:35:31.778Z,961.47
2022-08-12T07:37:31.783Z,961.52
2022-08-12T07:38:31.781Z,961.48
2022-08-12T07:39:31.805Z,961.52
2022-08-12T07:40:31.833Z,961.5
2022-08-12T07:41:31.914Z,961.44
2022-08-12T07:42:31.879Z,961.39
2022-08-12T07:43:31.793Z,961.37
2022-08-12T07:44:31.794Z,961.39
2022-08-12T07:45:31.877Z,961.36
2022-08-12T07:46:31.815Z,961.39
2022-08-12T07:47:31.806Z,961.32
2022-08-12T07:48:31.810Z,961.3
2022-08-12T07:49:31.842Z,961.32
2022-08-12T07:50:31.985Z,961.35
2022-08-12T07:51:31.883Z,961.36
2022-08-12T07:52:31.940Z,961.28
2022-08-12T07:53:31.949Z,961.29
2022-08-12T07:54:31.902Z,961.22
2022-08-12T07:55:31.880Z,961.2
2022-08-12T07:57:31.886Z,961.18
2022-08-12T07:58:31.827Z,961.19
2022-08-12T07:59:31.926Z,961.22
2022-08-12T08:02:31.943Z,961.27
2022-08-12T08:03:31.852Z,961.29
2022-08-12T08:04:31.850Z,961.33
2022-08-12T08:05:31.934Z,961.34
2022-08-12T08:06:32.104Z,961.3
2022-08-12T08:07:31.878Z,961.28
2022-08-12T08:08:31.860Z,961.29
2022-08-12T08:09:31.874Z,961.23
2022-08-12T08:10:31.981Z,961.22
2022-08-12T08:11:32.038Z,961.27
2022-08-12T08:12:31.942Z,961.22
2022-08-12T08:13:31.978Z,961.21
2022-08-12T08:14:31.881Z,961.15
2022-08-12T08:15:44.823Z,961.14
2022-08-12T08:16:31.977Z,961.13
2022-08-12T08:17:31.879Z,961.15
2022-08-12T08:18:32.026Z,961.12
2022-08-12T08:19:31.990Z,961.21
2022-08-12T08:20:31.962Z,961.16
2022-08-12T08:21:31.927Z,961.13
2022-08-12T08:22:35.658Z,961.12
2022-08-12T08:23:35.117Z,961.11
2022-08-12T08:25:35.426Z,961.06
2022-08-12T08:26:31.964Z,961.13
2022-08-12T08:27:32.034Z,961.11
2022-08-12T08:28:31.918Z,961.09
2022-08-12T08:29:31.972Z,961.08
2022-08-12T08:30:31.930Z,961.07
2022-08-12T08:32:31.942Z,961.09
2022-08-12T08:34:04.503Z,961.16
2022-08-12T08:36:32.188Z,961.14
2022-08-12T08:37:33.377Z,961.12
2022-08-12T08:38:35.274Z,961.11
2022-08-12T08:39:32.162Z,961.08
2022-08-12T08:40:32.024Z,961.06
2022-08-12T08:42:13.022Z,961.03
2022-08-12T08:42:32.026Z,961.09
2022-08-12T08:43:43.284Z,961.07
2022-08-12T08:44:32.173Z,961.08
2022-08-12T08:46:32.031Z,961.1
2022-08-12T08:48:32.069Z,961.07
2022-08-12T08:49:32.039Z,961.12
2022-08-12T08:50:32.107Z,961.1
2022-08-12T08:51:31.981Z,961.11
2022-08-12T08:52:40.009Z,961.08
2022-08-12T08:53:32.241Z,961.1
2022-08-12T08:54:32.078Z,961.07
2022-08-12T08:55:48.192Z,960.89
2022-08-12T08:56:32.192Z,960.94
2022-08-12T08:57:42.777Z,960.97
2022-08-12T08:58:32.049Z,960.95
2022-08-12T08:59:32.347Z,960.99
2022-08-12T09:00:32.085Z,960.92
2022-08-12T09:01:36.532Z,960.97
2022-08-12T09:02:32.172Z,960.98
2022-08-12T09:03:54.009Z,961.01
2022-08-12T09:05:10.376Z,961.04
2022-08-12T09:05:43.341Z,961
2022-08-12T09:06:37.210Z,960.97
2022-08-12T09:07:44.223Z,960.99
2022-08-12T09:08:32.249Z,960.97
2022-08-12T09:09:34.353Z,960.92
2022-08-12T09:10:32.401Z,960.94
2022-08-12T09:12:07.666Z,960.93
2022-08-12T09:14:10.240Z,960.85
2022-08-12T09:14:32.270Z,960.87
2022-08-12T09:15:35.167Z,960.86
2022-08-12T09:19:32.241Z,960.85
2022-08-12T09:20:32.189Z,960.81
2022-08-12T09:21:54.430Z,960.78
2022-08-12T09:22:35.093Z,960.77
2022-08-12T09:24:32.336Z,960.77
2022-08-12T09:25:33.487Z,960.75
2022-08-12T09:26:33.916Z,960.79
2022-08-12T09:27:58.131Z,960.76
2022-08-12T09:28:32.238Z,960.77
2022-08-12T09:30:09.304Z,960.79
2022-08-12T09:30:40.979Z,960.8
2022-08-12T09:32:04.525Z,960.79
2022-08-12T09:32:56.940Z,960.81
2022-08-12T09:34:24.861Z,960.82
2022-08-12T09:34:33.710Z,960.8
2022-08-12T09:35:32.202Z,960.75
2022-08-12T09:37:55.060Z,960.7
2022-08-12T09:38:32.353Z,960.68
2022-08-12T09:40:58.209Z,960.63
2022-08-12T09:42:10.496Z,960.68
2022-08-12T09:42:35.276Z,960.66
2022-08-12T09:43:32.321Z,960.63
2022-08-12T09:44:38.740Z,960.62
2022-08-12T09:46:07.286Z,960.6
2022-08-12T09:46:32.350Z,960.59
2022-08-12T09:47:33.392Z,960.6
2022-08-12T09:48:34.740Z,960.54
2022-08-12T09:49:32.219Z,960.55
2022-08-12T09:50:32.288Z,960.51
2022-08-12T09:51:37.992Z,960.45
2022-08-12T09:53:36.669Z,960.44
2022-08-12T09:54:34.447Z,960.42
2022-08-12T09:55:59.797Z,960.41
2022-08-12T09:56:57.726Z,960.39
2022-08-12T09:58:08.319Z,960.44
2022-08-12T10:00:14.263Z,960.39
2022-08-12T10:00:40.213Z,960.38
2022-08-12T10:01:34.826Z,960.34
2022-08-12T10:02:43.610Z,960.33
2022-08-12T10:03:33.099Z,960.35
2022-08-12T10:04:32.279Z,960.33
2022-08-12T10:05:51.796Z,960.32
2022-08-12T10:06:35.996Z,960.16
2022-08-12T10:07:39.380Z,960.13
2022-08-12T10:08:32.339Z,960.25
2022-08-12T10:09:57.854Z,960.19
2022-08-12T10:10:32.406Z,960.24
2022-08-12T10:12:07.919Z,960.2
2022-08-12T10:13:35.060Z,960.08
2022-08-12T10:14:33.394Z,960.06
2022-08-12T10:16:36.924Z,960.09
2022-08-12T10:17:32.333Z,960.12
2022-08-12T10:19:32.877Z,960.15
2022-08-12T10:20:32.429Z,960.19
2022-08-12T10:21:35.921Z,960.21
2022-08-12T10:22:36.938Z,960.23
2022-08-12T10:23:39.692Z,960.24
2022-08-12T10:24:32.268Z,960.26
2022-08-12T10:26:18.698Z,960.2
2022-08-12T10:26:36.488Z,960.17
2022-08-12T10:28:32.384Z,960.13
2022-08-12T10:30:02.181Z,960.12
2022-08-12T10:31:47.340Z,960.11
2022-08-12T10:32:43.642Z,960.12
2022-08-12T10:33:32.452Z,960.17
2022-08-12T10:34:32.357Z,960.21
2022-08-12T10:35:38.081Z,960.19
2022-08-12T10:36:36.505Z,960.24
2022-08-12T10:38:32.916Z,960.26
2022-08-12T10:38:39.454Z,960.27
2022-08-12T10:40:02.492Z,960.29
2022-08-12T10:40:33.667Z,960.23
2022-08-12T10:41:57.546Z,960.26
2022-08-12T10:42:32.449Z,960.21
2022-08-12T10:44:32.366Z,960.19
2022-08-12T10:46:32.411Z,960.12
2022-08-12T10:48:01.519Z,960.08
2022-08-12T10:48:33.742Z,960.12
2022-08-12T10:50:02.056Z,960.13
2022-08-12T10:50:38.085Z,960.1
2022-08-12T10:51:52.168Z,960.09
2022-08-12T10:52:47.448Z,960.08
2022-08-12T10:54:32.443Z,960.11
2022-08-12T10:55:32.409Z,960.05
2022-08-12T10:56:34.374Z,960.08
2022-08-12T10:57:50.434Z,960.1
2022-08-12T10:58:32.539Z,960.07
2022-08-12T10:59:39.073Z,960.05
2022-08-12T11:00:36.140Z,960.04
2022-08-12T11:03:01.655Z,960.02
2022-08-12T11:04:22.246Z,959.96
2022-08-12T11:04:44.287Z,959.94
2022-08-12T11:07:04.340Z,959.89
2022-08-12T11:07:04.516Z,959.97
2022-08-12T11:08:33.065Z,959.96
2022-08-12T11:08:39.234Z,959.95
2022-08-12T11:09:41.424Z,959.94
2022-08-12T11:10:32.546Z,959.89
2022-08-12T11:12:08.655Z,959.9
2022-08-12T11:12:36.469Z,959.85
2022-08-12T11:13:39.849Z,959.87
2022-08-12T11:14:48.990Z,959.85
2022-08-12T11:16:04.380Z,959.83
2022-08-12T11:16:32.558Z,959.85
2022-08-12T11:17:35.206Z,959.81
2022-08-12T11:18:32.468Z,959.84
2022-08-12T11:19:32.555Z,959.9
2022-08-12T11:20:32.395Z,959.86
2022-08-12T11:21:56.036Z,959.84
2022-08-12T11:22:32.543Z,959.85
2022-08-12T11:23:35.818Z,959.86
2022-08-12T11:24:33.695Z,959.87
2022-08-12T11:25:42.368Z,959.85
2022-08-12T11:26:32.545Z,959.84
2022-08-12T11:27:32.382Z,959.83
2022-08-12T11:28:33.660Z,959.8
2022-08-12T11:30:02.772Z,959.83
2022-08-12T11:31:40.845Z,959.82
2022-08-12T11:32:38.325Z,959.78
2022-08-12T11:34:04.016Z,959.8
2022-08-12T11:34:51.245Z,959.81
2022-08-12T11:35:32.659Z,959.82
2022-08-12T11:36:32.478Z,959.8
2022-08-12T11:38:32.470Z,959.79
2022-08-12T11:40:32.531Z,959.81
2022-08-12T11:41:32.843Z,959.79
2022-08-12T11:42:32.667Z,959.8
2022-08-12T11:43:32.401Z,959.73
2022-08-12T11:44:36.423Z,959.79
2022-08-12T11:46:32.438Z,959.8
2022-08-12T11:47:32.415Z,959.76
2022-08-12T11:48:51.631Z,959.79
2022-08-12T11:49:32.810Z,959.8
2022-08-12T11:50:32.735Z,959.76
2022-08-12T11:52:51.325Z,959.75
2022-08-12T11:53:56.810Z,959.73
2022-08-12T11:54:33.501Z,959.7
2022-08-12T11:55:32.640Z,959.67
2022-08-12T11:56:38.040Z,959.65
2022-08-12T11:58:09.397Z,959.66
2022-08-12T11:59:44.684Z,959.65
2022-08-12T12:02:00.651Z,959.69
2022-08-12T12:02:32.716Z,959.67
2022-08-12T12:03:40.345Z,959.7
2022-08-12T12:04:32.799Z,959.67
2022-08-12T12:06:32.521Z,959.65
2022-08-12T12:07:33.810Z,959.58
2022-08-12T12:09:50.724Z,959.63
2022-08-12T12:10:32.598Z,959.66
2022-08-12T12:11:48.765Z,959.65
2022-08-12T12:12:32.639Z,959.64
2022-08-12T12:14:06.223Z,959.67
2022-08-12T12:15:37.450Z,959.71
2022-08-12T12:16:33.504Z,959.68
2022-08-12T12:17:38.267Z,959.64
2022-08-12T12:19:39.611Z,959.6
2022-08-12T12:20:32.506Z,959.59
2022-08-12T12:21:46.814Z,959.57
2022-08-12T12:22:32.701Z,959.6
2022-08-12T12:23:34.218Z,959.59
2022-08-12T12:24:32.543Z,959.66
2022-08-12T12:25:59.888Z,959.67
2022-08-12T12:26:35.142Z,959.59
2022-08-12T12:27:39.416Z,959.57
2022-08-12T12:28:37.541Z,959.58
2022-08-12T12:30:14.321Z,959.6
2022-08-12T12:30:32.635Z,959.62
2022-08-12T12:32:09.831Z,959.64
2022-08-12T12:32:32.688Z,959.61
2022-08-12T12:33:46.370Z,959.54
2022-08-12T12:34:32.700Z,959.52
2022-08-12T12:36:06.855Z,959.5
2022-08-12T12:37:58.910Z,959.52
2022-08-12T12:38:32.740Z,959.53
2022-08-12T12:39:50.194Z,959.51
2022-08-12T12:41:37.156Z,959.47
2022-08-12T12:42:42.201Z,959.51
2022-08-12T12:43:37.247Z,959.48
2022-08-12T12:44:38.947Z,959.44
2022-08-12T12:46:32.745Z,959.39
2022-08-12T12:47:32.633Z,959.34
2022-08-12T12:48:32.581Z,959.33
2022-08-12T12:49:32.642Z,959.34
2022-08-12T12:50:34.726Z,959.31
2022-08-12T12:51:49.598Z,959.37
2022-08-12T12:52:32.815Z,959.31
2022-08-12T12:54:05.963Z,959.25
2022-08-12T12:54:32.734Z,959.29
2022-08-12T12:55:35.488Z,959.25
2022-08-12T12:56:34.334Z,959.29
2022-08-12T12:57:36.517Z,959.32
2022-08-12T12:58:33.112Z,959.33
2022-08-12T12:59:33.630Z,959.34
2022-08-12T13:01:36.449Z,959.35
2022-08-12T13:02:32.943Z,959.37
2022-08-12T13:03:35.526Z,959.36
2022-08-12T13:04:32.773Z,959.38
2022-08-12T13:06:32.809Z,959.36
2022-08-12T13:08:35.578Z,959.39
2022-08-12T13:09:35.962Z,959.33
2022-08-12T13:10:36.435Z,959.29
2022-08-12T13:11:32.686Z,959.3
2022-08-12T13:12:32.718Z,959.22
2022-08-12T13:14:08.412Z,959.27
2022-08-12T13:14:32.872Z,959.28
2022-08-12T13:15:42.955Z,959.23
2022-08-12T13:16:32.925Z,959.25
2022-08-12T13:18:00.758Z,959.23
2022-08-12T13:18:32.847Z,959.24
2022-08-12T13:19:36.505Z,959.21
2022-08-12T13:20:37.680Z,959.26
2022-08-12T13:21:36.259Z,959.29
2022-08-12T13:22:32.809Z,959.31
2022-08-12T13:23:36.633Z,959.28
2022-08-12T13:24:32.854Z,959.36
2022-08-12T13:25:32.806Z,959.37
2022-08-12T13:26:32.700Z,959.4
2022-08-12T13:27:34.747Z,959.38
2022-08-12T13:28:32.964Z,959.34
2022-08-12T13:29:32.708Z,959.39
2022-08-12T13:30:32.736Z,959.34
2022-08-12T13:32:32.927Z,959.33
2022-08-12T13:33:48.514Z,959.37
2022-08-12T13:34:35.442Z,959.26
2022-08-12T13:36:02.674Z,959.27
2022-08-12T13:36:32.865Z,959.28
2022-08-12T13:37:43.735Z,959.25
2022-08-12T13:38:34.368Z,959.19
2022-08-12T13:39:32.797Z,959.23
2022-08-12T13:40:32.820Z,959.26
2022-08-12T13:41:32.733Z,959.19
2022-08-12T13:42:32.909Z,959.18
2022-08-12T13:43:40.692Z,959.12
2022-08-12T13:45:32.755Z,959.15
2022-08-12T13:46:32.875Z,959.17
2022-08-12T13:47:32.806Z,959.23
2022-08-12T13:48:32.880Z,959.21
2022-08-12T13:49:54.306Z,959.22
2022-08-12T13:50:32.890Z,959.2
2022-08-12T13:52:32.844Z,959.21
2022-08-12T13:53:40.110Z,959.22
2022-08-12T13:55:32.845Z,959.25
2022-08-12T13:56:35.032Z,959.23
2022-08-12T13:57:32.791Z,959.19
2022-08-12T13:58:34.978Z,959.33
2022-08-12T13:59:47.843Z,959.38
2022-08-12T14:00:34.111Z,959.33
2022-08-12T14:01:33.343Z,959.31
2022-08-12T14:02:32.875Z,959.25
2022-08-12T14:03:49.693Z,959.24
2022-08-12T14:04:32.797Z,959.22
2022-08-12T14:06:33.035Z,959.19
2022-08-12T14:08:34.218Z,959.2
2022-08-12T14:09:33.209Z,959.21
2022-08-12T14:10:32.872Z,959.25
2022-08-12T14:11:32.942Z,959.22
2022-08-12T14:12:32.909Z,959.2
2022-08-12T14:14:03.020Z,959.22
2022-08-12T14:14:35.517Z,959.15
2022-08-12T14:15:35.133Z,959.17
2022-08-12T14:16:38.098Z,959.21
2022-08-12T14:18:33.008Z,959.22
2022-08-12T14:19:37.043Z,959.24
2022-08-12T14:20:33.268Z,959.19
2022-08-12T14:21:59.923Z,959.21
2022-08-12T14:22:33.048Z,959.15
2022-08-12T14:24:01.666Z,959.07
2022-08-12T14:24:33.036Z,959.01
2022-08-12T14:25:34.731Z,959.05